Time;durP1;ratioP1;P1;durP2;ratioP2;P2;SDS_P1;SDS_P2;PMS_P1;PMS_P2;Temp;Humidity;BMP_temperature;BMP_pressure;BME280_temperature;BME280_humidity;BME280_pressure;Samples;Min_cycle;Max_cycle;Signal;HPM_P1;HPM_P2
2021/01/02 00:00:51;;;;;;;30.60;21.97;;;-0.80;99.90;;;;;;5062223;28;20191;-73
2021/01/02 00:03:41;;;;;;;31.83;22.13;;;-0.80;99.90;;;;;;5058495;28;20215;-74
2021/01/02 00:06:24;;;;;;;34.97;24.53;;;-0.70;99.90;;;;;;5057680;28;20822;-74
2021/01/02 00:08:58;;;;;;;33.27;23.70;;;-0.60;99.90;;;;;;5060042;28;20217;-74
2021/01/02 00:11:40;;;;;;;35.63;25.23;;;-0.50;99.90;;;;;;5062337;28;20839;-74
2021/01/02 00:14:33;;;;;;;36.67;26.33;;;-0.40;99.90;;;;;;5037119;28;20213;-74
2021/01/02 00:17:29;;;;;;;32.13;24.40;;;-0.30;99.90;;;;;;5061918;28;20190;-74
2021/01/02 00:20:01;;;;;;;37.97;25.93;;;-0.20;99.90;;;;;;5072214;28;20687;-75
2021/01/02 00:23:09;;;;;;;30.77;23.07;;;-0.20;99.90;;;;;;5081142;28;20180;-74
2021/01/02 00:25:35;;;;;;;29.30;22.60;;;-0.10;99.90;;;;;;5059283;28;20213;-74
2021/01/02 00:28:21;;;;;;;29.90;22.50;;;-0.10;99.90;;;;;;5062283;28;20614;-74
2021/01/02 00:31:01;;;;;;;27.97;21.67;;;-0.10;99.90;;;;;;5054597;28;20182;-74
2021/01/02 00:33:38;;;;;;;27.67;21.43;;;0.00;99.90;;;;;;5054915;28;20227;-74
2021/01/02 00:36:14;;;;;;;30.83;22.07;;;0.00;99.90;;;;;;5060749;28;20186;-74
2021/01/02 00:38:40;;;;;;;26.97;20.43;;;0.00;99.90;;;;;;5061617;28;20604;-74
2021/01/02 00:41:06;;;;;;;30.80;22.97;;;0.10;99.90;;;;;;5056834;28;20229;-74
2021/01/02 00:43:33;;;;;;;27.87;22.27;;;0.10;99.90;;;;;;5050130;28;20204;-73
2021/01/02 00:45:59;;;;;;;29.23;24.10;;;0.20;99.90;;;;;;5058095;28;20686;-73
2021/01/02 00:48:26;;;;;;;33.53;24.90;;;0.20;99.90;;;;;;5048569;28;20269;-74
2021/01/02 00:50:54;;;;;;;31.70;24.60;;;0.30;99.90;;;;;;5060014;28;20545;-74
2021/01/02 00:53:33;;;;;;;28.30;22.20;;;0.40;99.90;;;;;;5063706;28;20202;-73
2021/01/02 00:56:29;;;;;;;27.43;22.93;;;0.40;99.90;;;;;;5064043;28;20396;-74
2021/01/02 00:59:16;;;;;;;27.77;22.67;;;0.40;99.90;;;;;;5006738;28;20199;-74
2021/01/02 01:02:20;;;;;;;25.83;21.17;;;0.40;99.90;;;;;;5084078;28;20176;-74
2021/01/02 01:05:30;;;;;;;27.73;22.13;;;0.40;99.90;;;;;;5076969;28;20226;-73
2021/01/02 01:08:17;;;;;;;29.67;23.93;;;0.50;99.90;;;;;;5079754;28;20197;-73
2021/01/02 01:10:44;;;;;;;31.57;23.47;;;0.60;99.90;;;;;;5082199;28;20653;-74
2021/01/02 01:13:15;;;;;;;30.87;24.07;;;0.60;99.90;;;;;;5085223;28;20665;-74
2021/01/02 01:15:41;;;;;;;27.97;21.10;;;0.60;99.90;;;;;;5084041;28;20209;-73
2021/01/02 01:18:18;;;;;;;26.03;20.67;;;0.60;99.90;;;;;;5081328;28;20863;-74
2021/01/02 01:20:53;;;;;;;26.13;21.37;;;0.60;99.90;;;;;;5086650;28;20220;-73
2021/01/02 01:23:36;;;;;;;29.50;22.37;;;0.60;99.90;;;;;;5085591;28;20229;-72
2021/01/02 01:26:29;;;;;;;26.13;22.03;;;0.60;99.90;;;;;;5073829;28;20183;-73
2021/01/02 01:28:57;;;;;;;34.00;24.63;;;0.60;99.90;;;;;;5078438;28;20253;-72
2021/01/02 01:31:23;;;;;;;30.07;23.40;;;0.60;99.90;;;;;;5084086;28;20178;-73
2021/01/02 01:33:52;;;;;;;31.70;24.50;;;0.60;99.90;;;;;;5086051;28;20245;-74
2021/01/02 01:36:21;;;;;;;31.87;24.40;;;0.60;99.90;;;;;;5089820;28;20190;-73
2021/01/02 01:38:55;;;;;;;29.43;22.43;;;0.60;99.90;;;;;;5077382;28;20772;-74
2021/01/02 01:41:36;;;;;;;32.97;24.53;;;0.60;99.90;;;;;;5083193;28;20817;-74
2021/01/02 01:44:05;;;;;;;30.20;23.13;;;0.60;99.90;;;;;;5081730;28;20736;-74
2021/01/02 01:46:49;;;;;;;32.53;24.27;;;0.70;99.90;;;;;;5088940;28;20208;-73
2021/01/02 01:49:56;;;;;;;35.13;26.70;;;0.70;99.90;;;;;;5082184;28;20177;-73
2021/01/02 01:52:50;;;;;;;36.90;27.10;;;0.70;99.90;;;;;;5082735;28;20304;-73
2021/01/02 01:55:19;;;;;;;37.40;27.67;;;0.70;99.90;;;;;;5080512;28;20203;-73
2021/01/02 01:57:47;;;;;;;37.07;27.37;;;0.70;99.90;;;;;;5072869;28;20184;-73
2021/01/02 02:00:17;;;;;;;36.33;27.23;;;0.70;99.90;;;;;;5083965;28;20795;-73
2021/01/02 02:02:45;;;;;;;36.63;26.97;;;0.70;99.90;;;;;;5080487;28;20190;-73
2021/01/02 02:05:13;;;;;;;36.07;26.07;;;0.70;99.90;;;;;;5085916;28;20284;-73
2021/01/02 02:07:58;;;;;;;35.70;26.53;;;0.70;99.90;;;;;;5083931;28;20802;-73
2021/01/02 02:10:29;;;;;;;33.17;23.77;;;0.80;99.90;;;;;;5075821;28;20283;-73
2021/01/02 02:12:58;;;;;;;31.20;24.17;;;0.80;99.90;;;;;;5078049;28;20191;-74
2021/01/02 02:15:28;;;;;;;31.80;23.80;;;0.80;99.90;;;;;;5079959;28;20200;-73
2021/01/02 02:18:24;;;;;;;29.53;22.77;;;0.80;99.90;;;;;;5076854;28;20181;-73
2021/01/02 02:20:52;;;;;;;28.73;22.50;;;0.80;99.90;;;;;;5076542;28;20185;-73
2021/01/02 02:23:35;;;;;;;25.43;21.27;;;0.80;99.90;;;;;;5085196;28;20229;-73
2021/01/02 02:26:18;;;;;;;29.23;21.43;;;0.80;99.90;;;;;;5081043;28;20175;-73
2021/01/02 02:28:52;;;;;;;28.00;21.33;;;0.80;99.90;;;;;;5077993;28;20179;-74
2021/01/02 02:31:20;;;;;;;27.30;20.63;;;0.80;99.90;;;;;;5077393;28;20234;-73
2021/01/02 02:33:58;;;;;;;28.83;20.63;;;0.80;99.90;;;;;;5083338;28;20211;-74
2021/01/02 02:36:26;;;;;;;26.13;21.20;;;0.80;99.90;;;;;;5082757;28;20189;-73
2021/01/02 02:38:53;;;;;;;26.27;21.33;;;0.70;99.90;;;;;;5082697;28;20178;-73
2021/01/02 02:41:23;;;;;;;27.37;21.37;;;0.70;99.90;;;;;;5078926;28;20231;-73
2021/01/02 02:43:53;;;;;;;24.00;19.67;;;0.70;99.90;;;;;;5081563;28;20267;-73
2021/01/02 02:46:22;;;;;;;27.17;21.27;;;0.70;99.90;;;;;;5078737;28;20190;-74
2021/01/02 02:48:52;;;;;;;28.33;21.87;;;0.70;99.90;;;;;;5079627;28;20182;-72
2021/01/02 02:51:20;;;;;;;29.20;21.90;;;0.70;99.90;;;;;;5079767;28;20828;-73
2021/01/02 02:53:49;;;;;;;26.90;21.90;;;0.70;99.90;;;;;;5082485;28;20233;-73
2021/01/02 02:56:15;;;;;;;27.40;21.87;;;0.70;99.90;;;;;;5081075;28;20210;-73
2021/01/02 02:58:40;;;;;;;30.27;23.73;;;0.70;99.90;;;;;;5077357;28;20689;-73
2021/01/02 03:01:06;;;;;;;27.93;21.20;;;0.70;99.90;;;;;;5080328;28;20195;-74
2021/01/02 03:03:32;;;;;;;28.80;22.57;;;0.70;99.90;;;;;;5078051;28;20301;-73
2021/01/02 03:05:58;;;;;;;29.10;21.43;;;0.70;99.90;;;;;;5075842;28;20207;-72
2021/01/02 03:08:25;;;;;;;30.57;23.00;;;0.70;99.90;;;;;;5088249;28;20716;-73
2021/01/02 03:10:52;;;;;;;30.30;23.00;;;0.70;99.90;;;;;;5082459;28;20597;-73
2021/01/02 03:13:18;;;;;;;29.33;22.27;;;0.70;99.90;;;;;;5083365;28;20226;-73
2021/01/02 03:15:43;;;;;;;30.33;23.37;;;0.70;99.90;;;;;;5077727;28;20199;-73
2021/01/02 03:18:12;;;;;;;30.70;22.73;;;0.80;99.90;;;;;;5083840;28;20192;-74
2021/01/02 03:20:38;;;;;;;31.97;23.53;;;0.80;99.90;;;;;;5075089;28;20218;-73
2021/01/02 03:23:04;;;;;;;29.53;22.53;;;0.80;99.90;;;;;;5078863;28;20401;-73
2021/01/02 03:25:30;;;;;;;28.63;22.70;;;0.90;99.90;;;;;;5083750;28;20204;-74
2021/01/02 03:27:57;;;;;;;28.90;22.73;;;0.90;99.90;;;;;;5076141;28;20191;-73
2021/01/02 03:30:26;;;;;;;30.93;22.87;;;0.90;99.90;;;;;;5083167;28;20188;-73
2021/01/02 03:32:52;;;;;;;30.17;23.57;;;0.90;99.90;;;;;;5079338;28;20273;-73
2021/01/02 03:35:17;;;;;;;28.93;22.63;;;0.90;99.90;;;;;;5077612;28;20407;-72
2021/01/02 03:37:44;;;;;;;32.43;23.50;;;0.80;99.90;;;;;;5074654;28;20190;-72
2021/01/02 03:40:12;;;;;;;28.13;22.67;;;0.90;99.90;;;;;;5085880;28;20265;-74
2021/01/02 03:42:39;;;;;;;29.83;22.60;;;0.90;99.90;;;;;;5080369;28;20180;-74
2021/01/02 03:45:08;;;;;;;28.03;22.30;;;0.80;99.90;;;;;;5085771;28;20205;-73
2021/01/02 03:47:35;;;;;;;27.33;22.73;;;0.80;99.90;;;;;;5082295;28;20656;-73
2021/01/02 03:50:01;;;;;;;29.00;23.67;;;0.80;99.90;;;;;;5082014;28;20185;-73
2021/01/02 03:52:26;;;;;;;23.77;20.27;;;0.80;99.90;;;;;;5077618;28;20186;-73
2021/01/02 03:54:53;;;;;;;27.40;21.87;;;0.70;99.90;;;;;;5081177;28;20828;-73
2021/01/02 03:57:18;;;;;;;27.23;20.57;;;0.70;99.90;;;;;;5076423;28;20211;-73
2021/01/02 03:59:44;;;;;;;23.20;19.80;;;0.70;99.90;;;;;;5079871;28;20632;-73
2021/01/02 04:02:10;;;;;;;25.00;19.53;;;0.60;99.90;;;;;;5076120;28;20187;-73
2021/01/02 04:04:35;;;;;;;26.10;20.40;;;0.60;99.90;;;;;;5079745;28;20222;-72
2021/01/02 04:07:02;;;;;;;25.20;20.10;;;0.60;99.90;;;;;;5075630;28;20194;-72
2021/01/02 04:09:28;;;;;;;26.60;21.80;;;0.60;99.90;;;;;;5081999;28;20188;-73
2021/01/02 04:11:53;;;;;;;25.60;21.23;;;0.60;99.90;;;;;;5078685;28;20182;-72
2021/01/02 04:14:19;;;;;;;26.20;19.97;;;0.60;99.90;;;;;;5076185;28;20214;-73
2021/01/02 04:16:45;;;;;;;26.57;22.03;;;0.60;99.90;;;;;;5076602;28;20199;-73
2021/01/02 04:19:12;;;;;;;26.13;20.97;;;0.70;99.90;;;;;;5076715;28;20204;-73
2021/01/02 04:21:37;;;;;;;25.00;18.63;;;0.70;99.90;;;;;;5081452;28;20211;-74
2021/01/02 04:24:04;;;;;;;23.67;20.17;;;0.60;99.90;;;;;;5081593;28;20291;-74
2021/01/02 04:29:52;;;;;;;25.00;18.83;;;0.50;99.90;;;;;;5070902;28;20288;-73
2021/01/02 04:32:18;;;;;;;27.70;20.23;;;0.50;99.90;;;;;;5081896;28;20262;-73
2021/01/02 04:34:43;;;;;;;29.60;22.17;;;0.50;99.90;;;;;;5077380;28;20206;-73
2021/01/02 04:37:09;;;;;;;22.67;19.30;;;0.50;99.90;;;;;;5077771;28;20267;-73
2021/01/02 04:39:34;;;;;;;26.60;21.17;;;0.50;99.90;;;;;;5080773;28;20262;-74
2021/01/02 04:42:00;;;;;;;27.37;21.43;;;0.50;99.90;;;;;;5081947;28;20202;-73
2021/01/02 04:44:27;;;;;;;26.77;21.13;;;0.50;99.90;;;;;;5084364;28;20243;-74
2021/01/02 04:46:54;;;;;;;26.00;20.80;;;0.50;99.90;;;;;;5089617;28;20213;-73
2021/01/02 04:49:20;;;;;;;28.37;21.97;;;0.50;99.90;;;;;;5082976;28;20772;-74
2021/01/02 04:51:46;;;;;;;27.43;22.07;;;0.50;99.90;;;;;;5080634;28;20175;-73
2021/01/02 04:54:13;;;;;;;30.37;22.33;;;0.50;99.90;;;;;;5082104;28;20660;-73
2021/01/02 04:56:39;;;;;;;29.97;22.17;;;0.50;99.90;;;;;;5081265;28;20703;-74
2021/01/02 04:59:10;;;;;;;29.83;22.13;;;0.50;99.90;;;;;;5079486;28;20193;-73
2021/01/02 05:01:40;;;;;;;26.27;21.40;;;0.50;99.90;;;;;;5080623;28;20677;-72
2021/01/02 05:04:07;;;;;;;29.10;22.07;;;0.50;99.90;;;;;;5080066;28;20214;-74
2021/01/02 05:06:33;;;;;;;29.33;22.80;;;0.50;99.90;;;;;;5074199;28;20178;-74
2021/01/02 05:09:05;;;;;;;26.03;21.97;;;0.50;99.90;;;;;;5080002;28;20266;-74
2021/01/02 05:11:38;;;;;;;25.80;21.93;;;0.50;99.90;;;;;;5078416;28;20313;-73
2021/01/02 05:14:05;;;;;;;26.07;21.13;;;0.50;99.90;;;;;;5080583;28;20762;-73
2021/01/02 05:16:35;;;;;;;31.20;23.00;;;0.60;99.90;;;;;;5075377;28;20209;-73
2021/01/02 05:19:12;;;;;;;30.37;22.70;;;0.60;99.90;;;;;;5081661;28;20199;-75
2021/01/02 05:21:48;;;;;;;29.03;22.37;;;0.60;99.90;;;;;;5080714;28;20181;-73
2021/01/02 05:24:20;;;;;;;32.13;24.57;;;0.60;99.90;;;;;;5081607;28;20221;-74
2021/01/02 05:26:52;;;;;;;30.83;23.73;;;0.60;99.90;;;;;;5079439;28;20182;-73
2021/01/02 05:29:22;;;;;;;35.33;25.30;;;0.60;99.90;;;;;;5079233;28;20208;-74
2021/01/02 05:31:53;;;;;;;30.73;24.50;;;0.60;99.90;;;;;;5081367;28;20245;-74
2021/01/02 05:34:21;;;;;;;25.67;21.40;;;0.70;99.90;;;;;;5083894;28;20216;-73
2021/01/02 05:36:46;;;;;;;26.17;20.83;;;0.70;99.90;;;;;;5082959;28;20306;-73
2021/01/02 05:39:17;;;;;;;26.60;18.93;;;0.70;99.90;;;;;;5081337;28;20205;-73
2021/01/02 05:41:53;;;;;;;24.37;20.20;;;0.70;99.90;;;;;;5080891;28;20193;-73
2021/01/02 05:44:20;;;;;;;26.67;20.10;;;0.70;99.90;;;;;;5089594;28;20218;-73
2021/01/02 05:46:48;;;;;;;25.93;20.50;;;0.60;99.90;;;;;;5081570;28;20179;-73
2021/01/02 05:49:30;;;;;;;28.80;21.10;;;0.70;99.90;;;;;;5079273;28;20194;-74
2021/01/02 05:52:00;;;;;;;29.00;22.07;;;0.70;99.90;;;;;;5077854;28;20655;-74
2021/01/02 05:54:27;;;;;;;31.97;22.53;;;0.70;99.90;;;;;;5083305;28;20207;-73
2021/01/02 05:56:56;;;;;;;28.57;22.57;;;0.70;99.90;;;;;;5076663;28;20691;-73
2021/01/02 05:59:29;;;;;;;26.97;21.20;;;0.70;99.90;;;;;;5081440;28;20195;-73
2021/01/02 06:01:54;;;;;;;27.70;22.00;;;0.70;99.90;;;;;;5081246;28;20194;-73
2021/01/02 06:04:20;;;;;;;24.97;20.63;;;0.70;99.90;;;;;;5083118;28;20589;-73
2021/01/02 06:06:46;;;;;;;27.30;20.63;;;0.70;99.90;;;;;;5078063;28;20181;-73
2021/01/02 06:09:12;;;;;;;27.87;22.20;;;0.80;99.90;;;;;;5078967;28;20685;-74
2021/01/02 06:11:42;;;;;;;29.20;22.13;;;0.80;99.90;;;;;;5078189;28;20219;-74
2021/01/02 06:14:08;;;;;;;29.43;22.63;;;0.80;99.90;;;;;;5079304;28;20622;-74
2021/01/02 06:16:42;;;;;;;28.70;21.60;;;0.80;99.90;;;;;;5084831;28;20195;-73
2021/01/02 06:19:07;;;;;;;29.07;22.27;;;0.90;99.90;;;;;;5082507;28;20251;-73
2021/01/02 06:21:33;;;;;;;29.50;22.77;;;0.90;99.90;;;;;;5074415;28;20187;-73
2021/01/02 06:24:00;;;;;;;29.73;22.40;;;0.90;99.90;;;;;;5080322;28;20294;-73
2021/01/02 06:26:26;;;;;;;36.37;25.07;;;0.90;99.90;;;;;;5079622;28;20529;-74
2021/01/02 06:28:53;;;;;;;35.80;24.93;;;0.90;99.90;;;;;;5076151;28;20193;-73
2021/01/02 06:31:18;;;;;;;39.33;26.67;;;0.90;99.90;;;;;;5081215;28;20214;-74
2021/01/02 06:33:49;;;;;;;42.83;28.67;;;0.90;99.90;;;;;;5076462;28;20211;-74
2021/01/02 06:36:33;;;;;;;43.20;27.70;;;0.90;99.90;;;;;;5082135;28;20241;-76
2021/01/02 06:39:27;;;;;;;42.00;27.00;;;1.00;99.90;;;;;;5080753;28;20180;-76
2021/01/02 06:41:54;;;;;;;40.77;27.60;;;1.00;99.90;;;;;;5101123;28;20195;-74
2021/01/02 06:44:39;;;;;;;43.17;27.97;;;1.00;99.90;;;;;;5088967;28;20208;-74
2021/01/02 06:47:21;;;;;;;41.37;26.37;;;1.00;99.90;;;;;;5089459;28;20239;-72
2021/01/02 06:49:48;;;;;;;41.53;26.77;;;1.00;99.90;;;;;;5091757;28;20650;-74
2021/01/02 06:52:28;;;;;;;38.23;25.97;;;1.00;99.90;;;;;;5083133;28;20188;-73
2021/01/02 06:55:14;;;;;;;42.40;27.80;;;1.00;99.90;;;;;;5097349;28;20209;-73
2021/01/02 06:57:39;;;;;;;35.07;24.50;;;1.00;99.90;;;;;;5075903;28;20240;-74
2021/01/02 07:00:28;;;;;;;37.90;25.83;;;1.10;99.90;;;;;;5078462;28;20190;-74
2021/01/02 07:02:55;;;;;;;37.83;26.37;;;1.00;99.90;;;;;;5079310;28;20197;-73
2021/01/02 07:05:43;;;;;;;41.30;27.87;;;1.00;99.90;;;;;;5082825;28;20354;-74
2021/01/02 07:08:40;;;;;;;43.67;27.63;;;1.00;99.90;;;;;;5084743;28;20185;-73
2021/01/02 07:11:33;;;;;;;39.67;26.23;;;1.00;99.90;;;;;;5080296;28;20205;-73
2021/01/02 07:14:17;;;;;;;54.20;36.60;;;0.90;99.90;;;;;;5084115;28;20213;-74
2021/01/02 07:16:55;;;;;;;45.00;29.93;;;0.90;99.90;;;;;;5086750;28;20183;-73
2021/01/02 07:19:30;;;;;;;53.10;33.53;;;0.90;99.90;;;;;;5082058;28;20212;-73
2021/01/02 07:22:10;;;;;;;40.33;28.57;;;0.90;99.90;;;;;;5079711;28;20205;-73
2021/01/02 07:24:46;;;;;;;40.10;26.13;;;0.90;99.90;;;;;;5079540;28;20270;-74
2021/01/02 07:27:16;;;;;;;41.07;27.87;;;0.90;99.90;;;;;;5078811;28;21148;-75
2021/01/02 07:29:42;;;;;;;35.50;24.73;;;1.00;99.90;;;;;;5075705;28;20718;-74
2021/01/02 07:32:15;;;;;;;39.67;25.83;;;1.00;99.90;;;;;;5082688;28;20186;-75
2021/01/02 07:34:49;;;;;;;40.60;27.43;;;1.00;99.90;;;;;;5077757;28;20207;-74
2021/01/02 07:37:19;;;;;;;38.90;26.43;;;1.00;99.90;;;;;;5084177;28;20320;-74
2021/01/02 07:40:05;;;;;;;38.33;27.30;;;1.00;99.90;;;;;;5073613;28;21788;-72
2021/01/02 07:42:52;;;;;;;37.47;25.80;;;1.10;99.90;;;;;;5076440;28;20193;-71
2021/01/02 07:45:23;;;;;;;37.93;25.03;;;1.10;99.90;;;;;;5080314;28;20228;-71
2021/01/02 07:47:51;;;;;;;36.07;24.50;;;1.10;99.90;;;;;;5076767;28;20220;-71
2021/01/02 07:50:27;;;;;;;37.10;24.87;;;1.20;99.90;;;;;;5081240;28;20215;-72
2021/01/02 07:52:58;;;;;;;34.00;24.20;;;1.20;99.90;;;;;;5075792;28;20186;-73
2021/01/02 07:55:29;;;;;;;38.63;24.97;;;1.10;99.90;;;;;;5073127;28;20211;-71
2021/01/02 07:57:55;;;;;;;36.50;23.70;;;1.20;99.90;;;;;;5077060;28;20191;-70
2021/01/02 08:00:22;;;;;;;35.40;23.47;;;1.10;99.90;;;;;;5081969;28;20180;-71
2021/01/02 08:02:48;;;;;;;37.07;26.20;;;1.10;99.90;;;;;;5076038;28;20181;-69
2021/01/02 08:05:19;;;;;;;35.60;25.37;;;1.10;99.90;;;;;;5083324;28;20231;-70
2021/01/02 08:07:56;;;;;;;39.47;27.00;;;1.10;99.90;;;;;;5077149;28;20676;-70
2021/01/02 08:10:22;;;;;;;43.10;27.20;;;1.20;99.90;;;;;;5076898;28;20263;-71
2021/01/02 08:12:51;;;;;;;36.53;25.87;;;1.20;99.90;;;;;;5072420;28;20238;-72
2021/01/02 08:15:30;;;;;;;34.20;23.23;;;1.20;99.90;;;;;;5077749;28;20212;-72
2021/01/02 08:18:07;;;;;;;34.70;24.00;;;1.30;99.90;;;;;;5088316;28;20193;-69
2021/01/02 08:20:34;;;;;;;32.30;22.73;;;1.30;99.90;;;;;;5081446;28;20215;-71
2021/01/02 08:23:10;;;;;;;33.50;24.03;;;1.40;99.90;;;;;;5081646;28;20186;-71
2021/01/02 08:25:36;;;;;;;34.73;23.07;;;1.40;99.90;;;;;;5087989;28;20205;-71
2021/01/02 08:28:03;;;;;;;31.77;21.93;;;1.40;99.90;;;;;;5086918;28;20184;-71
2021/01/02 08:30:28;;;;;;;27.60;20.40;;;1.50;99.90;;;;;;5083170;28;20308;-71
2021/01/02 08:32:56;;;;;;;27.63;20.27;;;1.50;99.90;;;;;;5086663;28;20296;-71
2021/01/02 08:35:39;;;;;;;27.73;19.47;;;1.50;99.90;;;;;;5082138;28;20213;-71
2021/01/02 08:38:12;;;;;;;29.23;20.33;;;1.50;99.90;;;;;;5082668;28;20804;-72
2021/01/02 08:40:40;;;;;;;27.03;20.53;;;1.50;99.90;;;;;;5091521;28;20262;-73
2021/01/02 08:43:06;;;;;;;27.93;20.53;;;1.60;99.90;;;;;;5092717;28;20212;-72
2021/01/02 08:45:39;;;;;;;31.57;22.37;;;1.60;99.90;;;;;;5094505;28;20330;-73
2021/01/02 08:48:13;;;;;;;30.27;21.90;;;1.70;99.90;;;;;;5093864;28;20179;-72
2021/01/02 08:50:40;;;;;;;29.63;20.83;;;1.70;99.90;;;;;;5081008;28;20270;-72
2021/01/02 08:53:06;;;;;;;27.57;20.07;;;1.60;99.90;;;;;;5082603;28;20221;-73
2021/01/02 08:55:32;;;;;;;28.43;20.23;;;1.60;99.90;;;;;;5079244;28;20847;-72
2021/01/02 08:57:57;;;;;;;26.53;20.63;;;1.70;99.90;;;;;;5082723;28;20235;-72
2021/01/02 09:00:30;;;;;;;29.20;19.93;;;1.70;99.90;;;;;;5082838;28;20190;-72
2021/01/02 09:02:58;;;;;;;24.80;18.93;;;1.70;99.90;;;;;;5085957;28;20196;-72
2021/01/02 09:05:38;;;;;;;25.17;18.87;;;1.80;99.90;;;;;;5086397;28;20207;-72
2021/01/02 09:08:09;;;;;;;26.60;19.27;;;1.80;99.90;;;;;;5077608;28;20731;-71
2021/01/02 09:10:42;;;;;;;24.77;18.70;;;1.80;99.90;;;;;;5084859;28;20260;-71
2021/01/02 09:13:16;;;;;;;25.53;19.20;;;1.80;99.90;;;;;;5077889;28;20665;-72
2021/01/02 09:15:42;;;;;;;23.20;18.80;;;1.90;99.90;;;;;;5078012;28;20203;-73
2021/01/02 09:18:07;;;;;;;26.50;19.50;;;2.00;99.90;;;;;;5079890;28;20199;-72
2021/01/02 09:20:33;;;;;;;28.27;22.87;;;2.10;99.90;;;;;;5081140;28;20191;-71
2021/01/02 09:22:59;;;;;;;25.43;20.83;;;2.20;99.90;;;;;;5089360;28;20200;-72
2021/01/02 09:25:32;;;;;;;23.63;19.27;;;2.30;99.90;;;;;;5084938;28;20223;-72
2021/01/02 09:28:18;;;;;;;23.37;18.53;;;2.40;99.90;;;;;;5086748;28;20248;-73
2021/01/02 09:30:45;;;;;;;25.03;19.70;;;2.50;99.90;;;;;;5084430;28;20588;-73
2021/01/02 09:33:12;;;;;;;24.23;18.67;;;2.60;99.90;;;;;;5077996;28;20179;-71
2021/01/02 09:35:39;;;;;;;25.97;23.17;;;2.60;99.90;;;;;;5092140;28;20218;-72
2021/01/02 09:38:05;;;;;;;23.53;19.20;;;2.60;99.90;;;;;;5082091;28;20190;-71
2021/01/02 09:40:33;;;;;;;25.23;19.83;;;2.60;99.90;;;;;;5083700;28;20202;-72
2021/01/02 09:42:59;;;;;;;21.90;19.10;;;2.60;99.90;;;;;;5075770;28;20193;-72
2021/01/02 09:45:24;;;;;;;22.60;18.23;;;2.60;99.90;;;;;;5083318;28;20218;-72
2021/01/02 09:47:50;;;;;;;21.10;17.27;;;2.60;99.90;;;;;;5075301;28;20261;-73
2021/01/02 09:50:16;;;;;;;22.47;17.37;;;2.60;99.90;;;;;;5079199;28;20240;-72
2021/01/02 09:52:41;;;;;;;22.27;18.60;;;2.60;99.90;;;;;;5075396;28;20194;-73
2021/01/02 09:55:08;;;;;;;22.70;18.00;;;2.70;99.90;;;;;;5075640;28;20289;-73
2021/01/02 09:57:33;;;;;;;22.33;17.13;;;2.80;99.90;;;;;;5081350;28;20188;-71
2021/01/02 09:59:59;;;;;;;24.00;18.23;;;2.90;99.90;;;;;;5083283;28;20702;-72
2021/01/02 10:02:24;;;;;;;22.33;18.03;;;2.90;99.80;;;;;;5080680;28;20203;-72
2021/01/02 10:04:51;;;;;;;21.43;18.37;;;2.90;99.70;;;;;;5079796;28;20217;-72
2021/01/02 10:07:19;;;;;;;23.47;18.60;;;2.90;99.60;;;;;;5075498;28;20191;-74
2021/01/02 10:09:46;;;;;;;22.90;18.73;;;2.90;99.50;;;;;;5081719;28;20180;-74
2021/01/02 10:12:14;;;;;;;25.13;18.40;;;2.80;99.90;;;;;;5076567;28;20214;-74
2021/01/02 10:14:40;;;;;;;21.90;18.10;;;2.80;99.90;;;;;;5079220;28;20307;-73
2021/01/02 10:17:07;;;;;;;22.93;18.00;;;2.80;99.90;;;;;;5076633;28;20657;-72
2021/01/02 10:19:33;;;;;;;22.33;17.07;;;2.90;99.90;;;;;;5084925;28;20230;-73
2021/01/02 10:22:03;;;;;;;23.23;18.47;;;3.00;99.30;;;;;;5079397;28;20226;-74
2021/01/02 10:24:31;;;;;;;21.17;16.63;;;3.10;99.60;;;;;;5083799;28;20761;-72
2021/01/02 10:26:57;;;;;;;25.63;19.27;;;3.30;98.90;;;;;;5078469;28;20216;-72
2021/01/02 10:29:23;;;;;;;21.00;16.77;;;3.30;98.60;;;;;;5083605;28;20195;-72
2021/01/02 10:31:49;;;;;;;21.60;17.77;;;3.40;98.40;;;;;;5082679;28;20240;-72
2021/01/02 10:34:15;;;;;;;21.13;17.37;;;3.40;98.60;;;;;;5081965;28;20209;-72
2021/01/02 10:36:44;;;;;;;23.10;16.20;;;3.60;98.20;;;;;;5078912;28;20547;-74
2021/01/02 10:39:10;;;;;;;22.20;17.77;;;3.60;97.80;;;;;;5082132;28;20197;-72
2021/01/02 10:41:36;;;;;;;21.00;17.37;;;3.70;97.10;;;;;;5084333;28;20191;-72
2021/01/02 10:44:01;;;;;;;22.87;17.50;;;3.80;97.30;;;;;;5080007;28;20210;-72
2021/01/02 10:46:27;;;;;;;23.87;18.13;;;3.90;96.70;;;;;;5084068;28;20977;-72
2021/01/02 10:48:53;;;;;;;20.27;17.30;;;4.00;97.00;;;;;;5078351;28;20191;-73
2021/01/02 10:51:19;;;;;;;25.73;18.97;;;4.10;96.50;;;;;;5077436;28;20812;-72
2021/01/02 10:53:45;;;;;;;22.67;18.50;;;4.10;95.80;;;;;;5082179;28;20560;-72
2021/01/02 10:56:13;;;;;;;20.57;17.87;;;4.20;95.70;;;;;;5077775;28;20181;-72
2021/01/02 10:58:39;;;;;;;24.67;19.10;;;4.30;94.90;;;;;;5085521;28;20245;-74
2021/01/02 11:01:05;;;;;;;25.30;21.47;;;4.50;95.00;;;;;;5085636;28;20586;-71
2021/01/02 11:03:32;;;;;;;24.37;20.37;;;4.70;94.20;;;;;;5075196;28;20189;-73
2021/01/02 11:05:58;;;;;;;19.60;17.50;;;4.80;93.90;;;;;;5074119;28;20338;-73
2021/01/02 11:08:23;;;;;;;20.87;17.03;;;4.80;93.40;;;;;;5076133;28;20257;-74
2021/01/02 11:10:49;;;;;;;20.73;18.00;;;4.90;93.00;;;;;;5082466;28;20597;-74
2021/01/02 11:13:15;;;;;;;20.97;18.80;;;4.90;93.70;;;;;;5081174;28;20190;-74
2021/01/02 11:15:40;;;;;;;19.40;17.10;;;5.00;92.80;;;;;;5075535;28;20345;-74
2021/01/02 11:18:06;;;;;;;18.37;15.57;;;5.00;92.60;;;;;;5076324;28;20187;-73
2021/01/02 11:20:31;;;;;;;19.10;17.10;;;4.90;92.20;;;;;;5082001;28;20221;-74
2021/01/02 11:22:57;;;;;;;22.00;18.47;;;4.90;92.90;;;;;;5075929;28;20205;-74
2021/01/02 11:25:22;;;;;;;21.57;17.87;;;4.90;92.60;;;;;;5073103;28;20224;-72
2021/01/02 11:27:48;;;;;;;31.10;22.73;;;4.70;93.00;;;;;;5078645;28;20276;-73
2021/01/02 11:30:15;;;;;;;28.70;22.23;;;4.50;93.30;;;;;;5072898;28;20321;-73
2021/01/02 11:32:41;;;;;;;21.47;17.43;;;4.50;93.80;;;;;;5080840;28;20193;-74
2021/01/02 11:35:07;;;;;;;23.80;17.10;;;4.50;93.50;;;;;;5082872;28;20712;-74
2021/01/02 11:37:33;;;;;;;20.13;16.33;;;4.50;93.90;;;;;;5079676;28;20187;-72
2021/01/02 11:39:58;;;;;;;19.43;17.07;;;4.40;93.60;;;;;;5084146;28;20717;-73
2021/01/02 11:42:24;;;;;;;18.90;16.77;;;4.40;93.90;;;;;;5075511;28;20201;-73
2021/01/02 11:44:50;;;;;;;19.47;16.80;;;4.30;94.10;;;;;;5082393;28;20300;-74
2021/01/02 11:47:15;;;;;;;18.87;16.80;;;4.30;94.20;;;;;;5082346;28;20185;-73
2021/01/02 11:49:41;;;;;;;18.57;16.20;;;4.40;94.20;;;;;;5094560;28;20177;-74
2021/01/02 11:52:08;;;;;;;19.67;17.10;;;4.40;94.30;;;;;;5100590;28;20169;-73
2021/01/02 11:54:34;;;;;;;20.13;17.43;;;4.40;94.30;;;;;;5100336;28;20206;-73
2021/01/02 11:57:01;;;;;;;17.77;15.87;;;4.40;94.10;;;;;;5089029;28;20184;-71
2021/01/02 11:59:27;;;;;;;18.00;16.03;;;4.40;93.70;;;;;;5083437;28;20187;-71
2021/01/02 12:01:56;;;;;;;22.97;18.27;;;4.40;94.40;;;;;;5080200;28;20198;-72
2021/01/02 12:04:24;;;;;;;32.60;23.23;;;4.30;93.70;;;;;;5076691;28;20213;-73
2021/01/02 12:06:50;;;;;;;20.63;18.10;;;4.30;94.10;;;;;;5077610;28;20265;-73
2021/01/02 12:09:18;;;;;;;19.10;16.90;;;4.30;94.20;;;;;;5083972;28;20183;-73
2021/01/02 12:11:46;;;;;;;19.83;16.73;;;4.30;94.00;;;;;;5079715;28;20174;-73
2021/01/02 12:14:14;;;;;;;20.67;16.97;;;4.20;94.10;;;;;;5080448;28;20695;-73
2021/01/02 12:16:46;;;;;;;19.13;16.63;;;4.20;94.10;;;;;;5080890;28;20670;-71
2021/01/02 12:19:25;;;;;;;18.37;16.40;;;4.20;94.50;;;;;;5076940;28;20229;-72
2021/01/02 12:21:54;;;;;;;19.80;17.70;;;4.20;94.70;;;;;;5084153;28;20191;-72
2021/01/02 12:24:21;;;;;;;19.90;17.13;;;4.10;94.80;;;;;;5080758;28;20665;-72
2021/01/02 12:26:48;;;;;;;23.33;18.83;;;4.10;95.00;;;;;;5075766;28;20299;-71
2021/01/02 12:29:16;;;;;;;22.27;18.80;;;4.00;95.10;;;;;;5087735;28;20247;-71
2021/01/02 12:31:44;;;;;;;22.03;19.07;;;4.00;95.50;;;;;;5082671;28;20263;-72
2021/01/02 12:34:12;;;;;;;21.17;17.90;;;4.00;95.30;;;;;;5081559;28;20289;-72
2021/01/02 12:36:40;;;;;;;17.77;15.30;;;3.90;95.30;;;;;;5081662;28;20190;-73
2021/01/02 12:39:07;;;;;;;17.67;15.77;;;3.90;95.20;;;;;;5082378;28;20185;-73
2021/01/02 12:41:33;;;;;;;18.97;16.27;;;3.90;94.90;;;;;;5082515;28;20335;-71
2021/01/02 12:43:59;;;;;;;18.37;15.93;;;3.90;95.30;;;;;;5087242;28;20242;-71
2021/01/02 12:46:25;;;;;;;20.03;17.83;;;3.90;95.30;;;;;;5078955;28;20193;-71
2021/01/02 12:48:51;;;;;;;20.30;17.23;;;3.90;95.20;;;;;;5082596;28;20176;-72
2021/01/02 12:51:21;;;;;;;20.97;18.00;;;3.90;95.20;;;;;;5091029;28;20185;-71
2021/01/02 12:53:48;;;;;;;17.33;15.30;;;3.90;95.10;;;;;;5088248;28;20237;-72
2021/01/02 12:56:15;;;;;;;48.23;35.10;;;3.80;94.40;;;;;;5083668;28;20740;-71